createdAt,value
2024-02-03T00:00:48.035Z,3.35
2024-02-03T00:03:50.905Z,12.57
2024-02-03T00:06:53.234Z,4.70
2024-02-03T00:09:55.634Z,7.47
2024-02-03T00:12:57.970Z,2.33
2024-02-03T00:16:00.356Z,2.60
2024-02-03T00:19:02.657Z,5.78
2024-02-03T00:22:04.903Z,7.47
2024-02-03T00:25:07.302Z,11.02
2024-02-03T00:28:09.523Z,5.67
2024-02-03T00:31:11.795Z,5.57
2024-02-03T00:34:14.184Z,4.07
2024-02-03T00:37:16.903Z,5.40
2024-02-03T00:40:19.118Z,9.15
2024-02-03T00:43:22.032Z,7.85
2024-02-03T00:46:24.221Z,13.38
2024-02-03T00:49:26.512Z,7.78
2024-02-03T00:52:28.768Z,0.98
2024-02-03T00:55:31.028Z,3.72
2024-02-03T00:58:33.185Z,11.97
2024-02-03T01:01:35.553Z,7.20
2024-02-03T01:04:37.990Z,5.68
2024-02-03T01:07:40.186Z,7.07
2024-02-03T01:10:42.378Z,4.07
2024-02-03T01:13:46.266Z,2.92
2024-02-03T01:16:49.729Z,3.50
2024-02-03T01:19:52.650Z,3.83
2024-02-03T01:22:55.015Z,2.90
2024-02-03T01:25:57.189Z,1.92
2024-02-03T01:28:59.445Z,3.43
2024-02-03T01:32:01.588Z,6.90
2024-02-03T01:35:04.642Z,4.70
2024-02-03T01:38:06.912Z,8.60
2024-02-03T01:41:09.030Z,3.08
2024-02-03T01:44:11.203Z,3.80
2024-02-03T01:47:13.344Z,7.07
2024-02-03T01:50:15.647Z,4.97
2024-02-03T01:53:19.026Z,3.97
2024-02-03T01:56:21.825Z,1.13
2024-02-03T01:59:25.426Z,1.70
2024-02-03T02:02:27.551Z,4.78
2024-02-03T02:05:30.160Z,4.05
2024-02-03T02:08:36.227Z,2.10
2024-02-03T02:11:38.589Z,9.50
2024-02-03T02:14:40.932Z,7.18
2024-02-03T02:17:43.426Z,1.70
2024-02-03T02:20:45.718Z,4.40
2024-02-03T02:23:47.862Z,1.10
2024-02-03T02:26:51.028Z,10.18
2024-02-03T02:29:53.158Z,3.50
2024-02-03T02:32:55.338Z,6.78
2024-02-03T02:35:57.638Z,7.50
2024-02-03T02:38:59.776Z,8.53
2024-02-03T02:42:02.004Z,10.05
2024-02-03T02:45:04.311Z,8.68
2024-02-03T02:48:06.823Z,5.45
2024-02-03T02:51:09.183Z,4.00
2024-02-03T02:54:11.363Z,7.43
2024-02-03T02:57:13.618Z,7.70
2024-02-03T03:00:16.103Z,4.57
2024-02-03T03:03:18.514Z,8.90
2024-02-03T03:06:20.896Z,13.90
2024-02-03T03:09:23.329Z,6.43
2024-02-03T03:12:25.554Z,7.90
2024-02-03T03:15:27.798Z,6.13
2024-02-03T03:18:30.049Z,9.52
2024-02-03T03:21:32.287Z,5.47
2024-02-03T03:24:34.493Z,9.57
2024-02-03T03:27:37.282Z,11.25
2024-02-03T03:30:39.648Z,6.87
2024-02-03T03:33:42.077Z,11.02
2024-02-03T03:36:44.398Z,4.15
2024-02-03T03:39:50.218Z,9.70
2024-02-03T03:42:52.451Z,9.70
2024-02-03T03:45:54.710Z,6.20
2024-02-03T03:48:56.974Z,5.13
2024-02-03T03:52:00.507Z,10.32
2024-02-03T03:55:02.781Z,6.00
2024-02-03T03:58:04.994Z,7.95
2024-02-03T04:01:09.620Z,6.63
2024-02-03T04:04:11.775Z,10.60
2024-02-03T04:07:13.953Z,6.50
2024-02-03T04:10:16.126Z,6.47
2024-02-03T04:13:18.286Z,8.55
2024-02-03T04:16:20.400Z,6.30
2024-02-03T04:19:22.637Z,6.00
2024-02-03T04:22:24.782Z,6.90
2024-02-03T04:25:26.993Z,7.55
2024-02-03T04:28:29.094Z,4.30
2024-02-03T04:31:31.143Z,6.33
2024-02-03T04:34:33.661Z,8.60
2024-02-03T04:37:36.026Z,7.15
2024-02-03T04:40:38.129Z,7.03
2024-02-03T04:43:40.273Z,11.57
2024-02-03T04:46:42.461Z,8.68
2024-02-03T04:49:44.653Z,5.28
2024-02-03T04:52:46.784Z,6.65
2024-02-03T04:55:48.933Z,11.38
2024-02-03T04:58:51.050Z,6.05
2024-02-03T05:01:53.129Z,6.23
2024-02-03T05:04:55.339Z,7.57
2024-02-03T05:07:57.492Z,5.75
2024-02-03T05:10:59.773Z,9.20
2024-02-03T05:14:01.929Z,8.57
2024-02-03T05:17:04.073Z,6.55
2024-02-03T05:20:07.005Z,7.03
2024-02-03T05:23:09.535Z,9.82
2024-02-03T05:26:11.651Z,8.70
2024-02-03T05:29:13.805Z,9.88
2024-02-03T05:32:16.003Z,6.17
2024-02-03T05:35:18.060Z,10.60
2024-02-03T05:38:20.227Z,10.45
2024-02-03T05:41:22.409Z,9.27
2024-02-03T05:44:24.572Z,8.65
2024-02-03T05:47:27.334Z,9.02
2024-02-03T05:50:29.508Z,9.68
2024-02-03T05:53:36.460Z,10.48
2024-02-03T05:56:38.967Z,10.45
2024-02-03T05:59:51.237Z,7.65
2024-02-03T06:02:57.307Z,3.33
2024-02-03T06:06:13.610Z,9.02
2024-02-03T06:09:24.107Z,10.57
2024-02-03T06:12:26.309Z,4.63
2024-02-03T06:15:28.506Z,11.05
2024-02-03T06:18:31.080Z,7.10
2024-02-03T06:21:36.158Z,15.85
2024-02-03T06:24:38.512Z,8.48
2024-02-03T06:27:40.711Z,16.00
2024-02-03T06:30:42.931Z,22.77
2024-02-03T06:33:45.237Z,33.00
2024-02-03T06:36:47.493Z,25.98
2024-02-03T06:39:49.734Z,23.30
2024-02-03T06:42:53.967Z,17.33
2024-02-03T06:45:56.253Z,14.18
2024-02-03T06:48:58.498Z,20.30
2024-02-03T06:52:00.706Z,8.30
2024-02-03T06:55:02.942Z,8.18
2024-02-03T06:58:05.334Z,11.15
2024-02-03T07:01:07.531Z,11.38
2024-02-03T07:04:10.000Z,15.10
2024-02-03T07:07:12.236Z,18.42
2024-02-03T07:10:14.518Z,16.77
2024-02-03T07:13:16.658Z,11.87
2024-02-03T07:16:18.881Z,14.75
2024-02-03T07:19:21.085Z,9.02
2024-02-03T07:22:23.240Z,14.25
2024-02-03T07:25:25.543Z,25.35
2024-02-03T07:28:27.652Z,27.30
2024-02-03T07:31:30.240Z,21.23
2024-02-03T07:34:32.559Z,12.63
2024-02-03T07:37:36.052Z,12.05
2024-02-03T07:40:38.151Z,14.35
2024-02-03T07:43:40.217Z,23.40
2024-02-03T07:46:42.508Z,23.35
2024-02-03T07:49:44.824Z,16.45
2024-02-03T07:52:47.166Z,14.30
2024-02-03T07:55:49.515Z,14.75
2024-02-03T07:58:52.483Z,18.15
2024-02-03T08:01:54.703Z,9.95
2024-02-03T08:04:56.992Z,12.97
2024-02-03T08:08:00.165Z,13.55
2024-02-03T08:11:02.280Z,5.43
2024-02-03T08:14:04.376Z,9.60
2024-02-03T08:17:06.656Z,10.23
2024-02-03T08:20:10.547Z,10.80
2024-02-03T08:23:12.992Z,12.65
2024-02-03T08:26:15.142Z,14.45
2024-02-03T08:29:17.257Z,13.68
2024-02-03T08:32:19.374Z,16.95
2024-02-03T08:35:21.612Z,17.80
2024-02-03T08:38:24.053Z,13.40
2024-02-03T08:41:26.218Z,11.85
2024-02-03T08:44:28.441Z,13.20
2024-02-03T08:47:30.607Z,13.48
2024-02-03T08:50:32.738Z,10.88
2024-02-03T08:53:34.997Z,16.65
2024-02-03T08:56:37.655Z,9.13
2024-02-03T08:59:39.869Z,14.05
2024-02-03T09:02:42.287Z,13.00
2024-02-03T09:05:44.535Z,11.67
2024-02-03T09:08:48.074Z,9.20
2024-02-03T09:11:50.225Z,13.75
2024-02-03T09:14:52.364Z,11.17
2024-02-03T09:17:54.791Z,11.23
2024-02-03T09:20:56.977Z,13.15
2024-02-03T09:23:59.218Z,12.90
2024-02-03T09:27:02.382Z,15.27
2024-02-03T09:30:05.825Z,12.43
2024-02-03T09:33:08.042Z,15.13
2024-02-03T09:36:10.322Z,16.83
2024-02-03T09:39:12.632Z,11.43
2024-02-03T09:42:14.870Z,13.55
2024-02-03T09:45:17.140Z,13.00
2024-02-03T09:48:19.563Z,12.38
2024-02-03T09:51:21.949Z,10.70
2024-02-03T09:54:24.699Z,10.68
2024-02-03T09:57:27.722Z,11.65
2024-02-03T10:00:30.098Z,12.27
2024-02-03T10:03:33.298Z,13.52
2024-02-03T10:06:35.665Z,7.97
2024-02-03T10:12:42.823Z,6.35
2024-02-03T10:15:45.069Z,7.67
2024-02-03T10:18:48.951Z,6.47
2024-02-03T10:21:51.735Z,4.20
2024-02-03T10:25:13.904Z,8.40
2024-02-03T10:28:19.479Z,7.68
2024-02-03T10:31:21.606Z,8.60
2024-02-03T10:34:24.030Z,8.88
2024-02-03T10:37:26.272Z,7.87
2024-02-03T10:40:29.393Z,11.30
2024-02-03T10:43:34.331Z,9.82
2024-02-03T10:46:38.330Z,8.93
2024-02-03T10:49:43.665Z,9.38
2024-02-03T10:52:48.036Z,9.68
2024-02-03T10:55:58.481Z,9.82
2024-02-03T10:59:01.191Z,10.85
2024-02-03T11:02:03.407Z,10.27
2024-02-03T11:05:05.679Z,10.68
2024-02-03T11:08:11.304Z,9.60
2024-02-03T11:11:24.419Z,9.38
2024-02-03T11:14:28.613Z,8.48
2024-02-03T11:17:31.850Z,8.27
2024-02-03T11:20:33.985Z,8.75
2024-02-03T11:23:36.483Z,9.38
2024-02-03T11:26:38.678Z,13.25
2024-02-03T11:29:40.840Z,10.10
2024-02-03T11:32:43.276Z,10.50
2024-02-03T11:35:46.871Z,10.77
2024-02-03T11:38:49.677Z,12.40
2024-02-03T11:41:51.868Z,9.02
2024-02-03T11:44:57.918Z,10.85
2024-02-03T11:48:00.741Z,9.50
2024-02-03T11:51:03.452Z,10.88
2024-02-03T11:54:06.325Z,17.13
2024-02-03T11:57:08.810Z,10.80
2024-02-03T12:00:11.312Z,14.45
2024-02-03T12:03:13.651Z,15.25
2024-02-03T12:06:15.862Z,7.78
2024-02-03T12:09:19.625Z,8.33
2024-02-03T12:12:23.854Z,11.80
2024-02-03T12:15:26.033Z,9.68
2024-02-03T12:18:28.998Z,7.87
2024-02-03T12:21:31.543Z,9.18
2024-02-03T12:24:33.828Z,9.57
2024-02-03T12:27:36.064Z,10.05
2024-02-03T12:30:38.792Z,7.20
2024-02-03T12:33:40.992Z,9.73
2024-02-03T12:36:43.484Z,14.07
2024-02-03T12:39:45.658Z,9.20
2024-02-03T12:42:47.869Z,10.23
2024-02-03T12:45:50.274Z,7.80
2024-02-03T12:48:52.883Z,4.57
2024-02-03T12:51:55.703Z,3.75
2024-02-03T12:54:57.941Z,5.35
2024-02-03T12:58:00.745Z,3.95
2024-02-03T13:01:04.642Z,7.00
2024-02-03T13:04:07.063Z,3.33
2024-02-03T13:07:09.302Z,4.15
2024-02-03T13:10:11.529Z,3.27
2024-02-03T13:13:13.914Z,6.40
2024-02-03T13:16:16.851Z,3.22
2024-02-03T13:19:19.052Z,4.07
2024-02-03T13:22:21.336Z,2.40
2024-02-03T13:25:23.787Z,3.22
2024-02-03T13:28:25.885Z,5.22
2024-02-03T13:31:28.224Z,3.58
2024-02-03T13:34:30.506Z,2.75
2024-02-03T13:37:35.928Z,2.72
2024-02-03T13:40:38.118Z,3.57
2024-02-03T13:43:40.208Z,6.88
2024-02-03T13:46:42.445Z,6.57
2024-02-03T13:49:44.653Z,5.93
2024-02-03T13:52:47.171Z,7.10
2024-02-03T13:55:49.484Z,6.20
2024-02-03T13:58:51.771Z,5.78
2024-02-03T14:01:53.977Z,3.53
2024-02-03T14:04:56.161Z,4.43
2024-02-03T14:07:58.405Z,3.83
2024-02-03T14:11:00.574Z,5.20
2024-02-03T14:14:02.716Z,2.92
2024-02-03T14:17:04.904Z,3.47
2024-02-03T14:20:08.535Z,5.40
2024-02-03T14:23:10.905Z,3.97
2024-02-03T14:26:13.176Z,7.63
2024-02-03T14:29:15.879Z,7.97
2024-02-03T14:32:18.059Z,5.20
2024-02-03T14:35:20.481Z,4.15
2024-02-03T14:38:23.152Z,3.83
2024-02-03T14:41:25.294Z,4.67
2024-02-03T14:44:27.448Z,4.53
2024-02-03T14:47:29.713Z,1.83
2024-02-03T14:50:31.818Z,3.80
2024-02-03T14:53:34.062Z,5.95
2024-02-03T14:56:36.271Z,5.47
2024-02-03T14:59:38.348Z,10.85
2024-02-03T15:02:40.530Z,15.15
2024-02-03T15:05:42.880Z,21.50
2024-02-03T15:08:45.332Z,68.03
2024-02-03T15:11:47.506Z,11.70
2024-02-03T15:14:49.859Z,3.95
2024-02-03T15:17:52.081Z,30.60
2024-02-03T15:20:54.403Z,30.50
2024-02-03T15:23:56.743Z,26.15
2024-02-03T15:26:58.969Z,20.90
2024-02-03T15:30:01.141Z,19.65
2024-02-03T15:33:03.907Z,10.32
2024-02-03T15:36:06.460Z,9.85
2024-02-03T15:39:09.655Z,10.23
2024-02-03T15:42:11.934Z,12.43
2024-02-03T15:45:17.095Z,15.77
2024-02-03T15:48:19.769Z,21.38
2024-02-03T15:51:22.328Z,31.03
2024-02-03T15:54:24.595Z,23.30
2024-02-03T15:57:26.902Z,30.27
2024-02-03T16:00:29.126Z,24.85
2024-02-03T16:03:32.265Z,31.83
2024-02-03T16:06:35.348Z,56.35
2024-02-03T16:09:37.718Z,59.17
2024-02-03T16:12:39.979Z,40.13
2024-02-03T16:15:42.286Z,36.08
2024-02-03T16:18:44.614Z,65.50
2024-02-03T16:21:46.973Z,82.43
2024-02-03T16:24:49.154Z,65.43
2024-02-03T16:27:51.740Z,110.75
2024-02-03T16:30:54.000Z,80.32
2024-02-03T16:33:56.531Z,71.75
2024-02-03T16:36:59.472Z,97.30
2024-02-03T16:40:02.136Z,66.20
2024-02-03T16:43:04.463Z,55.73
2024-02-03T16:46:06.664Z,53.67
2024-02-03T16:49:08.955Z,56.28
2024-02-03T16:52:11.444Z,63.20
2024-02-03T16:55:13.968Z,65.38
2024-02-03T16:58:16.307Z,55.15
2024-02-03T17:01:18.585Z,47.83
2024-02-03T17:04:21.218Z,41.33
2024-02-03T17:07:23.388Z,46.95
2024-02-03T17:10:25.817Z,50.63
2024-02-03T17:13:29.445Z,50.17
2024-02-03T17:16:31.869Z,72.50
2024-02-03T17:19:34.103Z,57.35
2024-02-03T17:22:36.632Z,58.90
2024-02-03T17:25:38.837Z,62.38
2024-02-03T17:28:41.260Z,56.25
2024-02-03T17:31:43.688Z,53.58
2024-02-03T17:34:45.867Z,62.95
2024-02-03T17:37:49.712Z,58.20
2024-02-03T17:40:52.276Z,31.77
2024-02-03T17:43:55.024Z,30.77
2024-02-03T17:46:58.022Z,34.42
2024-02-03T17:50:00.324Z,31.60
2024-02-03T17:53:03.662Z,16.10
2024-02-03T17:56:07.564Z,25.75
2024-02-03T17:59:10.089Z,31.45
2024-02-03T18:02:12.852Z,18.48
2024-02-03T18:05:18.955Z,15.80
2024-02-03T18:08:21.628Z,21.08
2024-02-03T18:11:26.249Z,12.82
2024-02-03T18:14:28.404Z,21.50
2024-02-03T18:17:30.542Z,16.23
2024-02-03T18:20:32.780Z,2.05
2024-02-03T18:23:34.853Z,14.13
2024-02-03T18:26:37.076Z,12.73
2024-02-03T18:29:39.243Z,12.80
2024-02-03T18:32:41.800Z,8.98
2024-02-03T18:35:44.210Z,17.92
2024-02-03T18:38:46.331Z,23.23
2024-02-03T18:41:48.734Z,15.20
2024-02-03T18:44:50.855Z,16.27
2024-02-03T18:47:53.283Z,16.42
2024-02-03T18:50:56.185Z,25.23
2024-02-03T18:53:58.334Z,35.63
2024-02-03T18:57:00.526Z,54.80
2024-02-03T19:00:03.202Z,37.20
2024-02-03T19:03:05.508Z,24.33
2024-02-03T19:06:10.880Z,16.15
2024-02-03T19:09:13.128Z,25.90
2024-02-03T19:12:17.270Z,37.95
2024-02-03T19:15:19.895Z,41.07
2024-02-03T19:18:23.989Z,39.08
2024-02-03T19:21:26.586Z,70.95
2024-02-03T19:24:29.086Z,71.00
2024-02-03T19:27:31.806Z,27.40
2024-02-03T19:30:34.379Z,28.13
2024-02-03T19:33:37.024Z,23.33
2024-02-03T19:36:39.550Z,24.05
2024-02-03T19:39:43.062Z,28.02
2024-02-03T19:42:45.300Z,33.63
2024-02-03T19:45:47.553Z,25.67
2024-02-03T19:48:50.231Z,25.77
2024-02-03T19:51:52.823Z,28.92
2024-02-03T19:54:55.273Z,39.87
2024-02-03T19:57:58.808Z,37.38
2024-02-03T20:01:01.252Z,20.50
2024-02-03T20:04:04.426Z,31.33
2024-02-03T20:07:06.917Z,21.17
2024-02-03T20:10:10.126Z,19.25
2024-02-03T20:13:12.699Z,22.77
2024-02-03T20:16:15.384Z,23.10
2024-02-03T20:19:18.130Z,21.70
2024-02-03T20:22:20.697Z,27.00
2024-02-03T20:25:23.121Z,28.33
2024-02-03T20:28:25.543Z,24.65
2024-02-03T20:31:27.961Z,43.70
2024-02-03T20:34:30.418Z,51.30
2024-02-03T20:37:32.691Z,36.30
2024-02-03T20:40:35.397Z,24.58
2024-02-03T20:43:37.782Z,20.15
2024-02-03T20:46:41.349Z,21.20
2024-02-03T20:49:44.011Z,21.85
2024-02-03T20:52:46.292Z,16.33
2024-02-03T20:55:48.715Z,18.77
2024-02-03T20:58:50.946Z,22.55
2024-02-03T21:01:53.521Z,22.05
2024-02-03T21:04:56.179Z,24.52
2024-02-03T21:08:05.761Z,24.75
2024-02-03T21:11:08.438Z,24.17
2024-02-03T21:14:11.249Z,25.00
2024-02-03T21:17:13.442Z,22.83
2024-02-03T21:20:18.425Z,29.30
2024-02-03T21:23:21.803Z,22.98
2024-02-03T21:26:24.088Z,23.03
2024-02-03T21:29:26.484Z,24.60
2024-02-03T21:32:28.720Z,23.40
2024-02-03T21:35:31.048Z,23.35
2024-02-03T21:38:33.242Z,25.45
2024-02-03T21:41:37.715Z,19.15
2024-02-03T21:44:39.832Z,23.58
2024-02-03T21:47:42.040Z,25.90
2024-02-03T21:50:44.197Z,25.23
2024-02-03T21:53:46.433Z,21.10
2024-02-03T21:56:48.658Z,16.67
2024-02-03T21:59:51.680Z,22.05
2024-02-03T22:02:53.849Z,21.92
2024-02-03T22:05:59.665Z,15.98
2024-02-03T22:09:01.793Z,30.15
2024-02-03T22:12:04.085Z,19.80
2024-02-03T22:15:06.744Z,26.08
2024-02-03T22:18:08.905Z,22.77
2024-02-03T22:21:11.068Z,27.38
2024-02-03T22:24:13.170Z,17.00
2024-02-03T22:27:15.575Z,18.80
2024-02-03T22:30:18.709Z,21.25
2024-02-03T22:33:21.324Z,17.95
2024-02-03T22:36:23.676Z,18.65
2024-02-03T22:39:25.869Z,25.15
2024-02-03T22:42:27.967Z,22.60
2024-02-03T22:45:30.166Z,22.83
2024-02-03T22:48:32.695Z,15.67
2024-02-03T22:51:35.106Z,20.25
2024-02-03T22:54:37.278Z,20.35
2024-02-03T22:57:39.531Z,17.57
2024-02-03T23:00:42.347Z,13.85
2024-02-03T23:03:45.433Z,22.42
2024-02-03T23:06:47.699Z,26.02
2024-02-03T23:09:49.953Z,13.35
2024-02-03T23:12:53.599Z,23.38
2024-02-03T23:15:55.866Z,18.50
2024-02-03T23:18:58.345Z,21.57
2024-02-03T23:22:00.943Z,26.77
2024-02-03T23:25:03.220Z,24.17
2024-02-03T23:28:05.490Z,36.60
2024-02-03T23:31:08.381Z,26.58
2024-02-03T23:34:10.556Z,27.63
2024-02-03T23:37:12.826Z,31.55
2024-02-03T23:40:14.964Z,22.63
2024-02-03T23:43:17.206Z,30.08
2024-02-03T23:46:19.361Z,31.10
2024-02-03T23:49:21.578Z,25.10
2024-02-03T23:52:23.693Z,29.52
2024-02-03T23:55:25.841Z,25.10
2024-02-03T23:58:28.807Z,23.80
